createdAt,value
2018-05-03T00:01:31.470Z,96837.06
2018-05-03T00:03:58.963Z,96840.39
2018-05-03T00:06:26.475Z,96839.66
2018-05-03T00:08:53.966Z,96833.77
2018-05-03T00:11:21.483Z,96833.70
2018-05-03T00:13:48.978Z,96848.16
2018-05-03T00:16:16.492Z,96862.63
2018-05-03T00:18:43.983Z,96873.10
2018-05-03T00:21:11.494Z,96868.31
2018-05-03T00:23:38.976Z,96870.97
2018-05-03T00:26:06.497Z,96863.20
2018-05-03T00:28:34.002Z,96862.09
2018-05-03T00:31:01.511Z,96865.97
2018-05-03T00:33:28.997Z,96865.66
2018-05-03T00:35:56.510Z,96870.12
2018-05-03T00:38:23.999Z,96860.17
2018-05-03T00:40:51.505Z,96857.29
2018-05-03T00:43:18.988Z,96858.61
2018-05-03T00:45:46.477Z,96857.66
2018-05-03T00:48:13.985Z,96858.69
2018-05-03T00:50:41.469Z,96849.47
2018-05-03T00:53:08.980Z,96848.00
2018-05-03T00:55:36.460Z,96848.65
2018-05-03T00:58:03.961Z,96842.42
2018-05-03T01:00:31.455Z,96835.44
2018-05-03T01:02:58.956Z,96831.20
2018-05-03T01:05:27.326Z,96825.82
2018-05-03T01:07:54.831Z,96820.20
2018-05-03T01:10:22.324Z,96816.59
2018-05-03T01:12:49.836Z,96814.17
2018-05-03T01:15:17.326Z,96809.36
2018-05-03T01:17:44.836Z,96805.78
2018-05-03T01:20:12.333Z,96804.36
2018-05-03T01:22:39.840Z,96809.17
2018-05-03T01:25:07.335Z,96812.38
2018-05-03T01:27:34.902Z,96786.80
2018-05-03T01:30:02.390Z,96815.92
2018-05-03T01:32:29.903Z,96822.86
2018-05-03T01:35:09.318Z,96826.18
2018-05-03T01:37:36.829Z,96821.64
2018-05-03T01:40:04.331Z,96825.62
2018-05-03T01:42:31.815Z,96829.91
2018-05-03T01:44:59.318Z,96834.03
2018-05-03T01:47:26.814Z,96830.83
2018-05-03T01:49:54.320Z,96821.05
2018-05-03T01:52:21.811Z,96826.36
2018-05-03T01:54:49.317Z,96838.36
2018-05-03T01:57:16.810Z,96837.45
2018-05-03T01:59:44.315Z,96840.05
2018-05-03T02:02:11.833Z,96840.11
2018-05-03T02:04:39.358Z,96839.59
2018-05-03T02:07:06.857Z,96842.80
2018-05-03T02:09:34.366Z,96841.48
2018-05-03T02:12:01.863Z,96836.66
2018-05-03T02:14:29.382Z,96837.28
2018-05-03T02:16:56.871Z,96840.09
2018-05-03T02:19:24.390Z,96841.71
2018-05-03T02:21:51.881Z,96840.26
2018-05-03T02:24:19.401Z,96856.64
2018-05-03T02:26:46.902Z,96852.52
2018-05-03T02:29:14.414Z,96851.31
2018-05-03T02:31:41.903Z,96852.22
2018-05-03T02:34:09.425Z,96851.70
2018-05-03T02:36:36.919Z,96860.86
2018-05-03T02:39:04.412Z,96864.17
2018-05-03T02:41:31.913Z,96869.69
2018-05-03T02:43:59.396Z,96867.76
2018-05-03T02:46:26.907Z,96866.26
2018-05-03T02:48:54.393Z,96870.18
2018-05-03T02:51:21.902Z,96875.73
2018-05-03T02:53:49.391Z,96881.38
2018-05-03T02:56:16.897Z,96882.31
2018-05-03T02:58:56.372Z,96878.52
2018-05-03T03:01:41.567Z,96883.91
2018-05-03T03:07:51.997Z,96882.67
2018-05-03T03:17:11.218Z,96890.09
2018-05-03T03:23:09.490Z,96891.03
2018-05-03T03:25:54.517Z,96899.77
2018-05-03T03:28:39.548Z,96896.66
2018-05-03T03:31:24.405Z,96902.74
2018-05-03T03:37:22.061Z,96918.06
2018-05-03T03:40:06.958Z,96925.30
2018-05-03T03:45:30.061Z,96926.75
2018-05-03T03:47:57.581Z,96929.33
2018-05-03T03:50:25.079Z,96932.31
2018-05-03T03:52:52.586Z,96935.38
2018-05-03T03:55:20.070Z,96931.79
2018-05-03T03:57:47.583Z,96932.84
2018-05-03T04:00:15.072Z,96932.66
2018-05-03T04:02:42.581Z,96935.52
2018-05-03T04:05:10.069Z,96934.39
2018-05-03T04:07:37.587Z,96941.03
2018-05-03T04:10:05.070Z,96940.61
2018-05-03T04:12:32.559Z,96945.57
2018-05-03T04:15:00.078Z,96938.32
2018-05-03T04:17:39.330Z,96941.09
2018-05-03T04:20:19.457Z,96942.70
2018-05-03T04:22:59.811Z,96945.14
2018-05-03T04:25:39.201Z,96946.67
2018-05-03T04:28:06.693Z,96944.41
2018-05-03T04:30:34.202Z,96942.28
2018-05-03T04:33:01.695Z,96949.70
2018-05-03T04:35:29.205Z,96958.11
2018-05-03T04:37:56.720Z,96955.95
2018-05-03T04:40:24.253Z,96958.53
2018-05-03T04:42:51.741Z,96958.14
2018-05-03T04:45:19.244Z,96953.23
2018-05-03T04:47:46.752Z,96954.84
2018-05-03T04:50:14.351Z,96950.84
2018-05-03T04:52:41.838Z,96952.77
2018-05-03T04:55:09.343Z,96961.81
2018-05-03T04:57:36.833Z,96966.36
2018-05-03T05:00:04.356Z,96968.98
2018-05-03T05:02:31.863Z,96959.78
2018-05-03T05:04:59.359Z,96963.19
2018-05-03T05:07:26.870Z,96960.76
2018-05-03T05:09:54.361Z,96975.47
2018-05-03T05:12:21.869Z,96970.27
2018-05-03T05:14:49.416Z,96970.64
2018-05-03T05:17:16.921Z,96967.05
2018-05-03T05:19:44.406Z,96974.96
2018-05-03T05:22:11.919Z,96973.23
2018-05-03T05:24:39.410Z,96976.75
2018-05-03T05:27:06.920Z,96979.58
2018-05-03T05:29:34.405Z,96982.64
2018-05-03T05:32:01.914Z,96986.93
2018-05-03T05:34:29.415Z,96980.19
2018-05-03T05:36:56.936Z,96984.88
2018-05-03T05:39:24.425Z,96980.53
2018-05-03T05:41:51.940Z,96982.84
2018-05-03T05:44:19.489Z,96973.11
2018-05-03T05:46:46.956Z,96971.48
2018-05-03T05:49:14.450Z,96979.72
2018-05-03T05:51:42.010Z,96966.13
2018-05-03T05:54:09.502Z,96973.63
2018-05-03T05:56:37.048Z,96976.06
2018-05-03T05:59:04.552Z,96983.33
2018-05-03T06:01:32.152Z,96981.20
2018-05-03T06:03:59.669Z,96979.47
2018-05-03T06:06:27.176Z,96977.03
2018-05-03T06:08:54.691Z,96975.41
2018-05-03T06:11:22.194Z,96971.45
2018-05-03T06:13:49.709Z,96971.66
2018-05-03T06:16:17.259Z,96956.59
2018-05-03T06:18:44.770Z,96956.41
2018-05-03T06:21:12.270Z,96958.19
2018-05-03T06:23:39.777Z,96960.03
2018-05-03T06:26:07.276Z,96965.53
2018-05-03T06:28:34.804Z,96966.59
2018-05-03T06:31:02.309Z,96967.46
2018-05-03T06:33:29.827Z,96980.83
2018-05-03T06:35:57.322Z,96979.30
2018-05-03T06:38:24.833Z,96983.72
2018-05-03T06:40:52.338Z,96983.00
2018-05-03T06:43:19.845Z,96973.44
2018-05-03T06:45:47.346Z,96975.64
2018-05-03T06:48:14.862Z,96973.08
2018-05-03T06:50:42.358Z,96979.91
2018-05-03T06:53:09.849Z,96983.83
2018-05-03T06:55:37.359Z,96977.13
2018-05-03T06:58:04.863Z,96978.17
2018-05-03T07:00:32.378Z,96980.91
2018-05-03T07:02:59.870Z,96982.19
2018-05-03T07:05:27.383Z,96976.58
2018-05-03T07:07:54.865Z,96980.84
2018-05-03T07:10:22.387Z,96992.50
2018-05-03T07:12:49.880Z,96987.33
2018-05-03T07:15:17.400Z,96985.09
2018-05-03T07:17:44.885Z,96984.63
2018-05-03T07:20:12.397Z,96987.16
2018-05-03T07:22:39.894Z,97004.06
2018-05-03T07:25:07.418Z,96997.44
2018-05-03T07:27:34.943Z,96999.79
2018-05-03T07:30:02.493Z,97000.75
2018-05-03T07:32:30.001Z,97014.50
2018-05-03T07:34:57.506Z,97022.17
2018-05-03T07:37:24.994Z,97014.34
2018-05-03T07:39:52.502Z,97019.69
2018-05-03T07:42:19.989Z,97017.70
2018-05-03T07:44:47.498Z,97003.50
2018-05-03T07:47:14.994Z,97004.04
2018-05-03T07:49:42.480Z,96992.62
2018-05-03T07:52:10.000Z,96994.38
2018-05-03T07:54:37.489Z,96992.23
2018-05-03T07:57:04.996Z,97005.08
2018-05-03T07:59:32.485Z,97006.91
2018-05-03T08:02:00.052Z,97011.76
2018-05-03T08:04:27.526Z,97010.34
2018-05-03T08:06:55.052Z,97026.88
2018-05-03T08:09:22.547Z,97034.20
2018-05-03T08:11:50.062Z,97026.73
2018-05-03T08:14:17.555Z,97018.61
2018-05-03T08:16:45.080Z,97031.62
2018-05-03T08:19:12.573Z,97038.50
2018-05-03T08:21:40.085Z,97020.43
2018-05-03T08:24:07.573Z,97035.42
2018-05-03T08:26:35.086Z,97036.33
2018-05-03T08:29:02.574Z,97031.11
2018-05-03T08:31:30.109Z,97038.08
2018-05-03T08:33:57.592Z,97042.78
2018-05-03T08:36:25.106Z,97050.66
2018-05-03T08:38:52.602Z,97055.98
2018-05-03T08:41:20.109Z,97062.45
2018-05-03T08:43:47.615Z,97062.95
2018-05-03T08:46:15.108Z,97066.64
2018-05-03T08:48:42.639Z,97071.12
2018-05-03T08:51:10.137Z,97066.70
2018-05-03T08:53:37.663Z,97063.86
2018-05-03T08:56:05.171Z,97070.12
2018-05-03T08:58:33.541Z,97070.19
2018-05-03T09:01:01.059Z,97073.71
2018-05-03T09:03:28.574Z,97079.26
2018-05-03T09:05:56.070Z,97081.44
2018-05-03T09:08:23.600Z,97080.16
2018-05-03T09:10:51.090Z,97083.38
2018-05-03T09:13:18.616Z,97076.61
2018-05-03T09:15:46.110Z,97074.06
2018-05-03T09:18:13.633Z,97092.16
2018-05-03T09:20:41.118Z,97084.41
2018-05-03T09:23:08.641Z,97086.48
2018-05-03T09:25:36.139Z,97087.48
2018-05-03T09:28:03.663Z,97083.95
2018-05-03T09:30:31.166Z,97086.54
2018-05-03T09:32:58.688Z,97093.09
2018-05-03T09:35:26.187Z,97091.66
2018-05-03T09:37:53.697Z,97083.20
2018-05-03T09:40:21.240Z,97099.73
2018-05-03T09:42:48.729Z,97094.56
2018-05-03T09:45:16.240Z,97088.19
2018-05-03T09:47:43.734Z,97084.73
2018-05-03T09:50:11.250Z,97088.38
2018-05-03T09:52:38.749Z,97096.07
2018-05-03T09:55:06.275Z,97091.33
2018-05-03T09:57:33.780Z,97073.49
2018-05-03T10:00:01.299Z,97084.98
2018-05-03T10:02:28.795Z,97078.09
2018-05-03T10:04:56.315Z,97078.47
2018-05-03T10:07:23.813Z,97075.55
2018-05-03T10:09:51.344Z,97065.67
2018-05-03T10:12:18.833Z,97062.00
2018-05-03T10:14:46.345Z,97068.09
2018-05-03T10:17:13.851Z,97072.77
2018-05-03T10:19:41.379Z,97065.44
2018-05-03T10:22:08.888Z,97067.73
2018-05-03T10:24:36.398Z,97061.29
2018-05-03T10:27:03.897Z,97067.91
2018-05-03T10:29:31.412Z,97074.23
2018-05-03T10:31:58.916Z,97078.99
2018-05-03T10:34:26.437Z,97078.70
2018-05-03T10:36:53.921Z,97073.16
2018-05-03T10:39:21.405Z,97073.91
2018-05-03T10:41:48.909Z,97073.61
2018-05-03T10:44:16.398Z,97062.13
2018-05-03T10:46:43.915Z,97052.66
2018-05-03T10:49:11.416Z,97057.81
2018-05-03T10:51:38.980Z,97052.09
2018-05-03T10:54:06.479Z,97048.22
2018-05-03T10:56:34.002Z,97059.38
2018-05-03T10:59:01.507Z,97050.53
2018-05-03T11:01:29.028Z,97060.60
2018-05-03T11:03:56.518Z,97054.73
2018-05-03T11:06:24.034Z,97062.15
2018-05-03T11:08:51.525Z,97058.28
2018-05-03T11:11:19.034Z,97058.17
2018-05-03T11:13:46.526Z,97063.76
2018-05-03T11:16:14.042Z,97052.59
2018-05-03T11:18:41.546Z,97051.47
2018-05-03T11:21:09.061Z,97038.80
2018-05-03T11:23:36.558Z,97046.22
2018-05-03T11:26:04.167Z,97059.15
2018-05-03T11:28:31.649Z,97057.66
2018-05-03T11:30:59.174Z,97054.40
2018-05-03T11:33:26.664Z,97050.11
2018-05-03T11:35:54.399Z,97040.92
2018-05-03T11:38:21.907Z,97044.72
2018-05-03T11:40:49.510Z,97051.27
2018-05-03T11:43:17.027Z,97049.69
2018-05-03T11:45:44.592Z,97052.48
2018-05-03T11:48:12.130Z,97046.75
2018-05-03T11:50:39.673Z,97058.45
2018-05-03T11:53:07.208Z,97040.47
2018-05-03T11:55:34.751Z,97041.73
2018-05-03T11:58:02.262Z,97047.16
2018-05-03T12:00:29.771Z,97047.90
2018-05-03T12:02:57.443Z,97043.94
2018-05-03T12:05:24.948Z,97044.56
2018-05-03T12:07:52.464Z,97047.86
2018-05-03T12:10:19.964Z,97040.39
2018-05-03T12:12:47.481Z,97047.41
2018-05-03T12:15:14.977Z,97043.13
2018-05-03T12:17:42.486Z,97053.72
2018-05-03T12:20:09.980Z,97061.73
2018-05-03T12:22:37.497Z,97049.56
2018-05-03T12:25:05.786Z,97046.16
2018-05-03T12:27:33.670Z,97051.02
2018-05-03T12:30:01.246Z,97052.99
2018-05-03T12:32:28.690Z,97046.02
2018-05-03T12:34:56.279Z,97050.72
2018-05-03T12:37:23.720Z,97042.45
2018-05-03T12:39:51.229Z,97040.30
2018-05-03T12:42:18.730Z,97045.52
2018-05-03T12:44:46.253Z,97045.98
2018-05-03T12:47:13.757Z,97037.93
2018-05-03T12:49:41.289Z,97040.99
2018-05-03T12:52:08.787Z,97035.52
2018-05-03T12:54:36.314Z,97044.25
2018-05-03T12:57:03.809Z,97036.80
2018-05-03T12:59:31.339Z,97051.19
2018-05-03T13:01:58.837Z,97047.88
2018-05-03T13:04:26.350Z,97042.25
2018-05-03T13:06:53.847Z,97049.25
2018-05-03T13:09:21.365Z,97051.95
2018-05-03T13:11:48.871Z,97061.78
2018-05-03T13:14:16.401Z,97057.25
2018-05-03T13:16:43.913Z,97058.58
2018-05-03T13:19:11.428Z,97055.83
2018-05-03T13:21:38.929Z,97060.16
2018-05-03T13:24:06.454Z,97055.64
2018-05-03T13:26:33.957Z,97048.97
2018-05-03T13:29:01.465Z,97045.82
2018-05-03T13:31:28.987Z,97051.59
2018-05-03T13:33:56.494Z,97053.70
2018-05-03T13:36:24.018Z,97057.75
2018-05-03T13:38:51.514Z,97061.52
2018-05-03T13:41:19.065Z,97055.83
2018-05-03T13:43:46.555Z,97052.89
2018-05-03T13:46:14.127Z,97059.57
2018-05-03T13:48:41.627Z,97057.30
2018-05-03T13:51:09.155Z,97053.58
2018-05-03T13:53:36.648Z,97054.21
2018-05-03T13:56:04.171Z,97059.42
2018-05-03T13:58:31.681Z,97057.87
2018-05-03T14:00:59.209Z,97058.48
2018-05-03T14:03:26.700Z,97054.83
2018-05-03T14:05:54.481Z,97058.67
2018-05-03T14:08:21.978Z,97065.18
2018-05-03T14:10:49.551Z,97062.48
2018-05-03T14:13:17.081Z,97056.67
2018-05-03T14:15:44.592Z,97057.64
2018-05-03T14:18:12.117Z,97053.81
2018-05-03T14:20:39.634Z,97050.75
2018-05-03T14:23:07.125Z,97046.98
2018-05-03T14:25:34.622Z,97038.55
2018-05-03T14:28:02.192Z,97047.83
2018-05-03T14:30:29.790Z,97047.99
2018-05-03T14:32:57.303Z,97049.38
2018-05-03T14:37:49.873Z,97047.34
2018-05-03T14:40:17.362Z,97042.77
2018-05-03T14:42:44.869Z,97044.82
2018-05-03T14:45:12.374Z,97052.40
2018-05-03T14:47:39.897Z,97051.86
2018-05-03T14:50:07.397Z,97058.30
2018-05-03T14:52:34.971Z,97058.27
2018-05-03T14:55:02.471Z,97060.43
2018-05-03T14:57:30.001Z,97053.05
2018-05-03T14:59:57.511Z,97059.63
2018-05-03T15:02:25.040Z,97058.31
2018-05-03T15:04:52.535Z,97054.99
2018-05-03T15:07:20.056Z,97058.48
2018-05-03T15:09:47.556Z,97063.56
2018-05-03T15:12:15.078Z,97062.52
2018-05-03T15:14:42.578Z,97063.02
2018-05-03T15:17:10.102Z,97067.71
2018-05-03T15:19:37.596Z,97062.12
2018-05-03T15:22:05.093Z,97059.61
2018-05-03T15:24:32.632Z,97068.55
2018-05-03T15:27:00.270Z,97071.09
2018-05-03T15:29:27.809Z,97065.34
2018-05-03T15:31:55.301Z,97069.44
2018-05-03T15:34:22.843Z,97055.80
2018-05-03T15:36:50.345Z,97066.15
2018-05-03T15:39:17.946Z,97061.34
2018-05-03T15:41:45.382Z,97059.84
2018-05-03T15:44:12.906Z,97066.73
2018-05-03T15:46:40.406Z,97062.14
2018-05-03T15:49:07.924Z,97063.12
2018-05-03T15:51:35.471Z,97071.26
2018-05-03T15:54:03.641Z,97072.22
2018-05-03T15:56:31.160Z,97070.39
2018-05-03T15:58:58.680Z,97077.98
2018-05-03T16:01:26.208Z,97085.02
2018-05-03T16:03:53.742Z,97088.14
2018-05-03T16:06:21.283Z,97061.25
2018-05-03T16:08:48.816Z,97083.72
2018-05-03T16:11:16.314Z,97083.03
2018-05-03T16:13:43.819Z,97090.50
2018-05-03T16:16:11.532Z,97089.80
2018-05-03T16:18:39.062Z,97103.28
2018-05-03T16:21:06.598Z,97099.86
2018-05-03T16:23:34.099Z,97096.81
2018-05-03T16:26:01.616Z,97102.84
2018-05-03T16:28:29.119Z,97110.61
2018-05-03T16:30:56.644Z,97117.05
2018-05-03T16:33:24.146Z,97119.52
2018-05-03T16:35:51.674Z,97118.93
2018-05-03T16:38:19.214Z,97105.31
2018-05-03T16:40:46.745Z,97126.09
2018-05-03T16:43:14.290Z,97126.31
2018-05-03T16:45:41.802Z,97130.77
2018-05-03T16:48:09.307Z,97122.09
2018-05-03T16:50:36.812Z,97130.41
2018-05-03T16:53:04.306Z,97129.61
2018-05-03T16:55:31.855Z,97137.55
2018-05-03T16:57:59.419Z,97140.76
2018-05-03T17:00:26.937Z,97137.84
2018-05-03T17:02:54.430Z,97125.98
2018-05-03T17:05:21.952Z,97130.48
2018-05-03T17:07:49.451Z,97140.81
2018-05-03T17:10:16.946Z,97131.52
2018-05-03T17:12:44.449Z,97137.89
2018-05-03T17:15:11.950Z,97128.92
2018-05-03T17:17:39.467Z,97141.04
2018-05-03T17:20:07.009Z,97141.04
2018-05-03T17:22:34.530Z,97147.70
2018-05-03T17:25:02.017Z,97151.52
2018-05-03T17:27:29.530Z,97150.63
2018-05-03T17:29:57.035Z,97151.84
2018-05-03T17:32:24.541Z,97152.28
2018-05-03T17:34:52.030Z,97153.23
2018-05-03T17:37:19.560Z,97153.17
2018-05-03T17:39:47.054Z,97154.94
2018-05-03T17:42:14.568Z,97162.36
2018-05-03T17:44:42.064Z,97157.33
2018-05-03T17:47:09.606Z,97169.56
2018-05-03T17:49:37.114Z,97171.67
2018-05-03T17:52:04.635Z,97167.90
2018-05-03T17:54:32.130Z,97170.94
2018-05-03T17:56:59.665Z,97172.11
2018-05-03T17:59:27.182Z,97177.75
2018-05-03T18:01:54.711Z,97181.11
2018-05-03T18:04:22.261Z,97195.50
2018-05-03T18:06:49.734Z,97198.78
2018-05-03T18:09:17.255Z,97199.94
2018-05-03T18:11:44.751Z,97201.15
2018-05-03T18:14:12.278Z,97203.94
2018-05-03T18:16:39.787Z,97204.27
2018-05-03T18:19:07.306Z,97197.41
2018-05-03T18:21:34.806Z,97201.71
2018-05-03T18:24:02.322Z,97182.44
2018-05-03T18:26:29.817Z,97211.34
2018-05-03T18:28:57.339Z,97215.42
2018-05-03T18:31:24.834Z,97217.92
2018-05-03T18:33:52.356Z,97224.91
2018-05-03T18:36:19.853Z,97232.42
2018-05-03T18:38:47.374Z,97223.41
2018-05-03T18:41:14.899Z,97228.83
2018-05-03T18:43:42.438Z,97228.97
2018-05-03T18:46:09.947Z,97230.59
2018-05-03T18:48:37.462Z,97232.91
2018-05-03T18:51:04.992Z,97242.07
2018-05-03T18:53:32.538Z,97247.75
2018-05-03T18:56:00.048Z,97250.81
2018-05-03T18:58:27.569Z,97253.39
2018-05-03T19:00:55.085Z,97252.26
2018-05-03T19:03:22.579Z,97237.59
2018-05-03T19:05:50.093Z,97251.72
2018-05-03T19:08:17.587Z,97255.80
2018-05-03T19:10:45.102Z,97263.76
2018-05-03T19:13:12.653Z,97262.31
2018-05-03T19:15:40.126Z,97265.16
2018-05-03T19:18:07.605Z,97266.25
2018-05-03T19:20:35.124Z,97277.05
2018-05-03T19:23:02.623Z,97287.23
2018-05-03T19:25:30.137Z,97286.31
2018-05-03T19:27:57.624Z,97288.20
2018-05-03T19:30:25.129Z,97288.88
2018-05-03T19:32:52.624Z,97284.11
2018-05-03T19:35:20.142Z,97293.23
2018-05-03T19:37:47.628Z,97299.06
2018-05-03T19:40:15.137Z,97297.28
2018-05-03T19:42:42.625Z,97295.75
2018-05-03T19:45:10.147Z,97298.77
2018-05-03T19:47:37.655Z,97307.14
2018-05-03T19:50:05.182Z,97304.22
2018-05-03T19:52:32.673Z,97314.97
2018-05-03T19:55:00.165Z,97309.98
2018-05-03T19:57:27.665Z,97309.63
2018-05-03T19:59:55.166Z,97315.84
2018-05-03T20:02:22.677Z,97317.92
2018-05-03T20:04:50.165Z,97316.98
2018-05-03T20:07:17.693Z,97322.72
2018-05-03T20:09:45.187Z,97325.36
2018-05-03T20:12:12.779Z,97325.50
2018-05-03T20:14:40.267Z,97326.71
2018-05-03T20:17:07.782Z,97323.26
2018-05-03T20:19:35.278Z,97322.92
2018-05-03T20:22:02.786Z,97323.81
2018-05-03T20:24:30.269Z,97314.10
2018-05-03T20:26:57.810Z,97319.50
2018-05-03T20:29:25.302Z,97321.49
2018-05-03T20:31:52.822Z,97329.80
2018-05-03T20:34:20.325Z,97328.39
2018-05-03T20:36:47.833Z,97327.09
2018-05-03T20:39:15.321Z,97324.73
2018-05-03T20:41:42.834Z,97325.95
2018-05-03T20:44:10.321Z,97329.60
2018-05-03T20:46:37.893Z,97312.72
2018-05-03T20:49:05.387Z,97323.70
2018-05-03T20:51:33.743Z,97322.15
2018-05-03T20:54:01.253Z,97316.64
2018-05-03T20:56:28.758Z,97320.59
2018-05-03T20:58:56.290Z,97302.69
2018-05-03T21:01:23.773Z,97314.11
2018-05-03T21:03:51.308Z,97312.09
2018-05-03T21:06:18.801Z,97313.84
2018-05-03T21:08:46.323Z,97316.18
2018-05-03T21:11:13.824Z,97319.54
2018-05-03T21:13:41.346Z,97298.72
2018-05-03T21:16:08.830Z,97329.78
2018-05-03T21:18:36.344Z,97317.55
2018-05-03T21:21:03.839Z,97312.35
2018-05-03T21:23:31.352Z,97300.12
2018-05-03T21:25:58.850Z,97286.56
2018-05-03T21:28:26.359Z,97299.16
2018-05-03T21:30:53.859Z,97301.73
2018-05-03T21:33:21.374Z,97303.90
2018-05-03T21:35:48.874Z,97304.56
2018-05-03T21:38:16.397Z,97309.31
2018-05-03T21:40:43.894Z,97290.11
2018-05-03T21:43:11.438Z,97314.63
2018-05-03T21:45:38.930Z,97306.67
2018-05-03T21:48:06.431Z,97302.63
2018-05-03T21:50:33.959Z,97307.48
2018-05-03T21:53:01.485Z,97327.50
2018-05-03T21:55:28.998Z,97333.09
2018-05-03T21:57:56.484Z,97331.08
2018-05-03T22:00:24.006Z,97334.57
2018-05-03T22:02:51.501Z,97336.27
2018-05-03T22:05:19.019Z,97332.60
2018-05-03T22:07:46.569Z,97345.47
2018-05-03T22:10:14.072Z,97335.58
2018-05-03T22:12:41.561Z,97340.92
2018-05-03T22:15:09.070Z,97334.42
2018-05-03T22:17:36.564Z,97336.84
2018-05-03T22:20:04.083Z,97342.70
2018-05-03T22:22:31.570Z,97342.67
2018-05-03T22:24:59.077Z,97346.60
2018-05-03T22:27:26.577Z,97341.22
2018-05-03T22:29:54.132Z,97355.13
2018-05-03T22:32:21.628Z,97354.09
2018-05-03T22:34:49.145Z,97356.86
2018-05-03T22:37:16.639Z,97353.92
2018-05-03T22:39:44.162Z,97360.00
2018-05-03T22:42:11.856Z,97372.05
2018-05-03T22:44:39.381Z,97378.31
2018-05-03T22:47:06.902Z,97378.13
2018-05-03T22:49:34.393Z,97382.80
2018-05-03T22:52:01.912Z,97388.69
2018-05-03T22:54:29.418Z,97389.95
2018-05-03T22:56:56.929Z,97399.06
2018-05-03T22:59:24.430Z,97390.76
2018-05-03T23:01:51.959Z,97396.34
2018-05-03T23:04:19.450Z,97392.22
2018-05-03T23:06:46.972Z,97399.41
2018-05-03T23:09:14.460Z,97402.20
2018-05-03T23:11:41.980Z,97405.12
2018-05-03T23:14:09.481Z,97408.04
2018-05-03T23:16:36.997Z,97400.09
2018-05-03T23:19:04.499Z,97398.69
2018-05-03T23:21:32.022Z,97401.96
2018-05-03T23:23:59.524Z,97399.88
2018-05-03T23:26:27.049Z,97401.05
2018-05-03T23:28:54.545Z,97398.92
2018-05-03T23:31:22.063Z,97398.00
2018-05-03T23:33:49.557Z,97399.98
2018-05-03T23:36:17.053Z,97401.66
2018-05-03T23:38:44.570Z,97406.84
2018-05-03T23:41:12.071Z,97410.86
2018-05-03T23:43:39.589Z,97414.30
2018-05-03T23:46:07.091Z,97412.92
2018-05-03T23:48:34.606Z,97417.28
2018-05-03T23:51:02.102Z,97418.28
2018-05-03T23:53:29.621Z,97410.17
2018-05-03T23:55:57.117Z,97405.12
2018-05-03T23:58:24.633Z,97400.86
